sensor_id;sensor_type;location;lat;lon;timestamp;P1;durP1;ratioP1;P2;durP2;ratioP2
69126;SDS011;56688;50.234;19.292;2023-04-24T00:01:36;81.40;;;31.10;;
69126;SDS011;56688;50.234;19.292;2023-04-24T00:04:03;41.00;;;22.50;;
69126;SDS011;56688;50.234;19.292;2023-04-24T00:06:30;36.20;;;20.50;;
69126;SDS011;56688;50.234;19.292;2023-04-24T00:09:00;38.10;;;20.70;;
69126;SDS011;56688;50.234;19.292;2023-04-24T00:11:27;40.00;;;20.70;;
69126;SDS011;56688;50.234;19.292;2023-04-24T00:13:55;42.60;;;20.70;;
69126;SDS011;56688;50.234;19.292;2023-04-24T00:16:23;39.90;;;19.90;;
69126;SDS011;56688;50.234;19.292;2023-04-24T00:18:50;37.60;;;20.30;;
69126;SDS011;56688;50.234;19.292;2023-04-24T00:21:19;42.60;;;20.80;;
69126;SDS011;56688;50.234;19.292;2023-04-24T00:23:47;43.10;;;20.00;;
69126;SDS011;56688;50.234;19.292;2023-04-24T00:26:14;44.30;;;20.30;;
69126;SDS011;56688;50.234;19.292;2023-04-24T00:28:41;42.10;;;20.70;;
69126;SDS011;56688;50.234;19.292;2023-04-24T00:31:08;34.00;;;19.70;;
69126;SDS011;56688;50.234;19.292;2023-04-24T00:33:35;39.20;;;20.10;;
69126;SDS011;56688;50.234;19.292;2023-04-24T00:36:02;39.20;;;22.60;;
69126;SDS011;56688;50.234;19.292;2023-04-24T00:38:29;43.50;;;21.00;;
69126;SDS011;56688;50.234;19.292;2023-04-24T00:40:56;91.20;;;31.50;;
69126;SDS011;56688;50.234;19.292;2023-04-24T00:43:23;127.90;;;41.20;;
69126;SDS011;56688;50.234;19.292;2023-04-24T00:45:50;135.80;;;44.40;;
69126;SDS011;56688;50.234;19.292;2023-04-24T00:48:17;63.10;;;25.70;;
69126;SDS011;56688;50.234;19.292;2023-04-24T00:50:44;47.50;;;22.50;;
69126;SDS011;56688;50.234;19.292;2023-04-24T00:53:13;74.20;;;28.10;;
69126;SDS011;56688;50.234;19.292;2023-04-24T00:55:40;69.40;;;26.10;;
69126;SDS011;56688;50.234;19.292;2023-04-24T00:58:07;59.50;;;25.20;;
69126;SDS011;56688;50.234;19.292;2023-04-24T01:00:34;68.10;;;27.20;;
69126;SDS011;56688;50.234;19.292;2023-04-24T01:03:01;46.60;;;20.90;;
69126;SDS011;56688;50.234;19.292;2023-04-24T01:05:32;49.00;;;21.10;;
69126;SDS011;56688;50.234;19.292;2023-04-24T01:08:00;49.60;;;22.60;;
69126;SDS011;56688;50.234;19.292;2023-04-24T01:10:29;42.00;;;21.40;;
69126;SDS011;56688;50.234;19.292;2023-04-24T01:12:58;42.50;;;22.00;;
69126;SDS011;56688;50.234;19.292;2023-04-24T01:15:25;83.00;;;37.60;;
69126;SDS011;56688;50.234;19.292;2023-04-24T01:17:52;55.40;;;26.30;;
69126;SDS011;56688;50.234;19.292;2023-04-24T01:20:20;47.80;;;24.00;;
69126;SDS011;56688;50.234;19.292;2023-04-24T01:22:47;58.10;;;26.40;;
69126;SDS011;56688;50.234;19.292;2023-04-24T01:25:14;58.90;;;28.10;;
69126;SDS011;56688;50.234;19.292;2023-04-24T01:27:41;61.10;;;27.50;;
69126;SDS011;56688;50.234;19.292;2023-04-24T01:30:10;54.00;;;26.20;;
69126;SDS011;56688;50.234;19.292;2023-04-24T01:32:38;41.70;;;22.50;;
69126;SDS011;56688;50.234;19.292;2023-04-24T01:35:07;45.40;;;23.90;;
69126;SDS011;56688;50.234;19.292;2023-04-24T01:37:34;66.50;;;29.00;;
69126;SDS011;56688;50.234;19.292;2023-04-24T01:40:04;63.70;;;28.10;;
69126;SDS011;56688;50.234;19.292;2023-04-24T01:42:33;66.80;;;29.70;;
69126;SDS011;56688;50.234;19.292;2023-04-24T01:45:02;53.00;;;25.80;;
69126;SDS011;56688;50.234;19.292;2023-04-24T01:47:30;56.10;;;27.10;;
69126;SDS011;56688;50.234;19.292;2023-04-24T01:49:58;41.40;;;23.60;;
69126;SDS011;56688;50.234;19.292;2023-04-24T01:52:25;35.80;;;21.40;;
69126;SDS011;56688;50.234;19.292;2023-04-24T01:54:52;38.60;;;21.90;;
69126;SDS011;56688;50.234;19.292;2023-04-24T01:57:19;38.10;;;22.10;;
69126;SDS011;56688;50.234;19.292;2023-04-24T01:59:46;44.30;;;23.30;;
69126;SDS011;56688;50.234;19.292;2023-04-24T02:02:13;36.20;;;22.00;;
69126;SDS011;56688;50.234;19.292;2023-04-24T02:04:41;34.80;;;20.80;;
69126;SDS011;56688;50.234;19.292;2023-04-24T02:07:08;32.10;;;19.80;;
69126;SDS011;56688;50.234;19.292;2023-04-24T02:09:35;32.20;;;19.00;;
69126;SDS011;56688;50.234;19.292;2023-04-24T02:12:01;27.20;;;17.30;;
69126;SDS011;56688;50.234;19.292;2023-04-24T02:14:28;32.70;;;17.50;;
69126;SDS011;56688;50.234;19.292;2023-04-24T02:16:55;35.70;;;19.50;;
69126;SDS011;56688;50.234;19.292;2023-04-24T02:19:22;46.80;;;21.20;;
69126;SDS011;56688;50.234;19.292;2023-04-24T02:21:49;45.10;;;22.00;;
69126;SDS011;56688;50.234;19.292;2023-04-24T02:24:17;31.20;;;17.90;;
69126;SDS011;56688;50.234;19.292;2023-04-24T02:26:44;24.30;;;15.60;;
69126;SDS011;56688;50.234;19.292;2023-04-24T02:29:11;25.70;;;14.90;;
69126;SDS011;56688;50.234;19.292;2023-04-24T02:31:38;24.50;;;13.40;;
69126;SDS011;56688;50.234;19.292;2023-04-24T02:34:05;22.20;;;13.80;;
69126;SDS011;56688;50.234;19.292;2023-04-24T02:36:32;20.60;;;12.20;;
69126;SDS011;56688;50.234;19.292;2023-04-24T02:38:59;20.60;;;11.10;;
69126;SDS011;56688;50.234;19.292;2023-04-24T02:41:27;16.90;;;10.40;;
69126;SDS011;56688;50.234;19.292;2023-04-24T02:43:58;17.80;;;10.80;;
69126;SDS011;56688;50.234;19.292;2023-04-24T02:46:25;20.00;;;11.90;;
69126;SDS011;56688;50.234;19.292;2023-04-24T02:48:52;26.60;;;13.40;;
69126;SDS011;56688;50.234;19.292;2023-04-24T02:51:19;32.30;;;15.40;;
69126;SDS011;56688;50.234;19.292;2023-04-24T02:53:46;37.70;;;18.20;;
69126;SDS011;56688;50.234;19.292;2023-04-24T02:56:13;30.70;;;15.90;;
69126;SDS011;56688;50.234;19.292;2023-04-24T02:58:40;25.10;;;14.00;;
69126;SDS011;56688;50.234;19.292;2023-04-24T03:01:07;18.50;;;10.80;;
69126;SDS011;56688;50.234;19.292;2023-04-24T03:03:37;29.70;;;13.70;;
69126;SDS011;56688;50.234;19.292;2023-04-24T03:06:05;36.70;;;15.50;;
69126;SDS011;56688;50.234;19.292;2023-04-24T03:08:34;22.00;;;11.90;;
69126;SDS011;56688;50.234;19.292;2023-04-24T03:11:02;20.20;;;12.70;;
69126;SDS011;56688;50.234;19.292;2023-04-24T03:13:29;28.90;;;15.30;;
69126;SDS011;56688;50.234;19.292;2023-04-24T03:15:56;41.30;;;17.90;;
69126;SDS011;56688;50.234;19.292;2023-04-24T03:18:23;62.50;;;22.60;;
69126;SDS011;56688;50.234;19.292;2023-04-24T03:20:51;72.20;;;26.70;;
69126;SDS011;56688;50.234;19.292;2023-04-24T03:23:18;62.60;;;24.00;;
69126;SDS011;56688;50.234;19.292;2023-04-24T03:25:44;51.20;;;21.50;;
69126;SDS011;56688;50.234;19.292;2023-04-24T03:28:12;32.30;;;17.10;;
69126;SDS011;56688;50.234;19.292;2023-04-24T03:30:43;26.60;;;15.20;;
69126;SDS011;56688;50.234;19.292;2023-04-24T03:33:10;30.80;;;16.90;;
69126;SDS011;56688;50.234;19.292;2023-04-24T03:35:43;38.90;;;19.50;;
69126;SDS011;56688;50.234;19.292;2023-04-24T03:38:11;40.70;;;19.60;;
69126;SDS011;56688;50.234;19.292;2023-04-24T03:40:51;40.50;;;19.80;;
69126;SDS011;56688;50.234;19.292;2023-04-24T03:43:33;40.90;;;18.90;;
69126;SDS011;56688;50.234;19.292;2023-04-24T03:46:01;32.40;;;15.30;;
69126;SDS011;56688;50.234;19.292;2023-04-24T03:48:31;25.30;;;14.10;;
69126;SDS011;56688;50.234;19.292;2023-04-24T03:50:58;25.30;;;13.50;;
69126;SDS011;56688;50.234;19.292;2023-04-24T03:53:25;22.40;;;13.30;;
69126;SDS011;56688;50.234;19.292;2023-04-24T03:55:53;21.30;;;13.20;;
69126;SDS011;56688;50.234;19.292;2023-04-24T03:58:20;27.30;;;14.10;;
69126;SDS011;56688;50.234;19.292;2023-04-24T04:00:48;27.00;;;14.50;;
69126;SDS011;56688;50.234;19.292;2023-04-24T04:03:36;25.50;;;14.50;;
69126;SDS011;56688;50.234;19.292;2023-04-24T04:06:03;28.70;;;14.90;;
69126;SDS011;56688;50.234;19.292;2023-04-24T04:08:30;27.60;;;14.20;;
69126;SDS011;56688;50.234;19.292;2023-04-24T04:10:57;25.40;;;14.10;;
69126;SDS011;56688;50.234;19.292;2023-04-24T04:13:24;31.00;;;15.70;;
69126;SDS011;56688;50.234;19.292;2023-04-24T04:15:52;32.50;;;14.40;;
69126;SDS011;56688;50.234;19.292;2023-04-24T04:18:19;26.20;;;14.20;;
69126;SDS011;56688;50.234;19.292;2023-04-24T04:20:46;29.90;;;15.20;;
69126;SDS011;56688;50.234;19.292;2023-04-24T04:23:13;25.80;;;14.40;;
69126;SDS011;56688;50.234;19.292;2023-04-24T04:25:49;34.10;;;15.50;;
69126;SDS011;56688;50.234;19.292;2023-04-24T04:28:20;30.30;;;15.90;;
69126;SDS011;56688;50.234;19.292;2023-04-24T04:30:48;29.80;;;15.60;;
69126;SDS011;56688;50.234;19.292;2023-04-24T04:33:17;32.10;;;15.50;;
69126;SDS011;56688;50.234;19.292;2023-04-24T04:35:44;29.60;;;15.10;;
69126;SDS011;56688;50.234;19.292;2023-04-24T04:38:15;30.80;;;15.50;;
69126;SDS011;56688;50.234;19.292;2023-04-24T04:40:58;89.20;;;29.60;;
69126;SDS011;56688;50.234;19.292;2023-04-24T04:43:28;100.60;;;34.00;;
69126;SDS011;56688;50.234;19.292;2023-04-24T04:45:54;146.00;;;41.90;;
69126;SDS011;56688;50.234;19.292;2023-04-24T04:48:38;101.50;;;33.70;;
69126;SDS011;56688;50.234;19.292;2023-04-24T04:51:06;106.80;;;35.10;;
69126;SDS011;56688;50.234;19.292;2023-04-24T04:53:33;74.00;;;26.40;;
69126;SDS011;56688;50.234;19.292;2023-04-24T04:56:00;76.60;;;27.50;;
69126;SDS011;56688;50.234;19.292;2023-04-24T04:58:34;63.60;;;24.00;;
69126;SDS011;56688;50.234;19.292;2023-04-24T05:01:01;62.50;;;22.40;;
69126;SDS011;56688;50.234;19.292;2023-04-24T05:03:32;48.00;;;20.50;;
69126;SDS011;56688;50.234;19.292;2023-04-24T05:06:04;42.50;;;18.60;;
69126;SDS011;56688;50.234;19.292;2023-04-24T05:08:33;71.70;;;24.90;;
69126;SDS011;56688;50.234;19.292;2023-04-24T05:11:04;104.20;;;33.70;;
69126;SDS011;56688;50.234;19.292;2023-04-24T05:13:31;73.70;;;35.20;;
69126;SDS011;56688;50.234;19.292;2023-04-24T05:16:11;80.00;;;36.40;;
69126;SDS011;56688;50.234;19.292;2023-04-24T05:18:39;99.70;;;36.70;;
69126;SDS011;56688;50.234;19.292;2023-04-24T05:21:06;82.00;;;30.80;;
69126;SDS011;56688;50.234;19.292;2023-04-24T05:23:34;61.10;;;26.00;;
69126;SDS011;56688;50.234;19.292;2023-04-24T05:26:01;43.90;;;19.60;;
69126;SDS011;56688;50.234;19.292;2023-04-24T05:28:31;29.70;;;16.00;;
69126;SDS011;56688;50.234;19.292;2023-04-24T05:31:04;25.10;;;13.20;;
69126;SDS011;56688;50.234;19.292;2023-04-24T05:33:31;26.00;;;12.70;;
69126;SDS011;56688;50.234;19.292;2023-04-24T05:35:58;20.40;;;11.70;;
69126;SDS011;56688;50.234;19.292;2023-04-24T05:38:26;16.00;;;8.90;;
69126;SDS011;56688;50.234;19.292;2023-04-24T05:40:53;14.80;;;8.80;;
69126;SDS011;56688;50.234;19.292;2023-04-24T05:43:20;19.40;;;8.40;;
69126;SDS011;56688;50.234;19.292;2023-04-24T05:45:47;11.60;;;6.40;;
69126;SDS011;56688;50.234;19.292;2023-04-24T05:48:13;15.00;;;8.10;;
69126;SDS011;56688;50.234;19.292;2023-04-24T05:50:40;10.90;;;6.00;;
69126;SDS011;56688;50.234;19.292;2023-04-24T05:53:08;8.40;;;5.90;;
69126;SDS011;56688;50.234;19.292;2023-04-24T05:55:37;14.20;;;8.10;;
69126;SDS011;56688;50.234;19.292;2023-04-24T05:58:05;15.90;;;7.80;;
69126;SDS011;56688;50.234;19.292;2023-04-24T06:00:33;15.60;;;8.50;;
69126;SDS011;56688;50.234;19.292;2023-04-24T06:03:03;13.60;;;8.00;;
69126;SDS011;56688;50.234;19.292;2023-04-24T06:05:31;16.10;;;7.90;;
69126;SDS011;56688;50.234;19.292;2023-04-24T06:07:58;11.90;;;7.60;;
69126;SDS011;56688;50.234;19.292;2023-04-24T06:10:29;12.70;;;7.00;;
69126;SDS011;56688;50.234;19.292;2023-04-24T06:12:57;12.80;;;7.70;;
69126;SDS011;56688;50.234;19.292;2023-04-24T06:15:28;12.30;;;7.10;;
69126;SDS011;56688;50.234;19.292;2023-04-24T06:18:05;15.20;;;7.20;;
69126;SDS011;56688;50.234;19.292;2023-04-24T06:20:33;11.80;;;6.50;;
69126;SDS011;56688;50.234;19.292;2023-04-24T06:23:00;10.50;;;5.70;;
69126;SDS011;56688;50.234;19.292;2023-04-24T06:25:27;9.30;;;4.90;;
69126;SDS011;56688;50.234;19.292;2023-04-24T06:27:55;8.20;;;4.70;;
69126;SDS011;56688;50.234;19.292;2023-04-24T06:30:22;9.40;;;4.80;;
69126;SDS011;56688;50.234;19.292;2023-04-24T06:32:49;4.90;;;4.00;;
69126;SDS011;56688;50.234;19.292;2023-04-24T06:35:16;6.50;;;3.70;;
69126;SDS011;56688;50.234;19.292;2023-04-24T06:37:43;5.60;;;3.80;;
69126;SDS011;56688;50.234;19.292;2023-04-24T06:40:10;6.70;;;3.70;;
69126;SDS011;56688;50.234;19.292;2023-04-24T06:42:37;9.50;;;3.90;;
69126;SDS011;56688;50.234;19.292;2023-04-24T06:45:07;4.20;;;3.20;;
69126;SDS011;56688;50.234;19.292;2023-04-24T06:47:34;5.10;;;3.20;;
69126;SDS011;56688;50.234;19.292;2023-04-24T06:50:01;7.60;;;3.60;;
69126;SDS011;56688;50.234;19.292;2023-04-24T06:52:28;6.70;;;3.20;;
69126;SDS011;56688;50.234;19.292;2023-04-24T06:54:59;5.00;;;3.50;;
69126;SDS011;56688;50.234;19.292;2023-04-24T06:57:29;3.80;;;3.10;;
69126;SDS011;56688;50.234;19.292;2023-04-24T06:59:56;8.80;;;3.60;;
69126;SDS011;56688;50.234;19.292;2023-04-24T07:02:23;4.60;;;3.30;;
69126;SDS011;56688;50.234;19.292;2023-04-24T07:04:50;7.00;;;3.40;;
69126;SDS011;56688;50.234;19.292;2023-04-24T07:07:17;6.50;;;3.40;;
69126;SDS011;56688;50.234;19.292;2023-04-24T07:09:44;6.40;;;3.30;;
69126;SDS011;56688;50.234;19.292;2023-04-24T07:12:12;3.80;;;3.20;;
69126;SDS011;56688;50.234;19.292;2023-04-24T07:14:39;4.90;;;3.00;;
69126;SDS011;56688;50.234;19.292;2023-04-24T07:17:07;4.70;;;3.20;;
69126;SDS011;56688;50.234;19.292;2023-04-24T07:19:34;5.10;;;3.00;;
69126;SDS011;56688;50.234;19.292;2023-04-24T07:22:02;3.20;;;2.90;;
69126;SDS011;56688;50.234;19.292;2023-04-24T07:24:30;5.80;;;3.40;;
69126;SDS011;56688;50.234;19.292;2023-04-24T07:26:58;6.50;;;2.80;;
69126;SDS011;56688;50.234;19.292;2023-04-24T07:29:27;4.60;;;3.00;;
69126;SDS011;56688;50.234;19.292;2023-04-24T07:31:54;3.90;;;3.00;;
69126;SDS011;56688;50.234;19.292;2023-04-24T07:34:21;3.50;;;2.80;;
69126;SDS011;56688;50.234;19.292;2023-04-24T07:36:48;4.40;;;2.80;;
69126;SDS011;56688;50.234;19.292;2023-04-24T07:39:15;3.70;;;3.20;;
69126;SDS011;56688;50.234;19.292;2023-04-24T07:41:42;4.70;;;3.00;;
69126;SDS011;56688;50.234;19.292;2023-04-24T07:44:08;6.60;;;3.30;;
69126;SDS011;56688;50.234;19.292;2023-04-24T07:46:36;4.80;;;3.00;;
69126;SDS011;56688;50.234;19.292;2023-04-24T07:49:03;4.60;;;3.00;;
69126;SDS011;56688;50.234;19.292;2023-04-24T07:51:39;4.50;;;3.00;;
69126;SDS011;56688;50.234;19.292;2023-04-24T07:54:08;5.10;;;3.30;;
69126;SDS011;56688;50.234;19.292;2023-04-24T07:56:35;5.60;;;2.70;;
69126;SDS011;56688;50.234;19.292;2023-04-24T07:59:06;4.20;;;2.80;;
69126;SDS011;56688;50.234;19.292;2023-04-24T08:01:33;5.10;;;2.70;;
69126;SDS011;56688;50.234;19.292;2023-04-24T08:04:00;5.20;;;2.80;;
69126;SDS011;56688;50.234;19.292;2023-04-24T08:06:27;5.40;;;2.80;;
69126;SDS011;56688;50.234;19.292;2023-04-24T08:08:57;4.70;;;3.30;;
69126;SDS011;56688;50.234;19.292;2023-04-24T08:11:25;5.30;;;2.80;;
69126;SDS011;56688;50.234;19.292;2023-04-24T08:13:52;3.00;;;2.70;;
69126;SDS011;56688;50.234;19.292;2023-04-24T08:16:19;5.30;;;2.80;;
69126;SDS011;56688;50.234;19.292;2023-04-24T08:18:46;5.40;;;3.10;;
69126;SDS011;56688;50.234;19.292;2023-04-24T08:21:13;4.10;;;2.90;;
69126;SDS011;56688;50.234;19.292;2023-04-24T08:23:44;3.90;;;2.70;;
69126;SDS011;56688;50.234;19.292;2023-04-24T08:26:11;4.60;;;2.70;;
69126;SDS011;56688;50.234;19.292;2023-04-24T08:28:39;5.80;;;3.90;;
69126;SDS011;56688;50.234;19.292;2023-04-24T08:31:06;5.00;;;3.30;;
69126;SDS011;56688;50.234;19.292;2023-04-24T08:33:33;3.30;;;2.60;;
69126;SDS011;56688;50.234;19.292;2023-04-24T08:36:02;3.70;;;2.60;;
69126;SDS011;56688;50.234;19.292;2023-04-24T08:38:30;5.20;;;2.70;;
69126;SDS011;56688;50.234;19.292;2023-04-24T08:40:58;3.40;;;2.40;;
69126;SDS011;56688;50.234;19.292;2023-04-24T08:43:26;4.50;;;2.60;;
69126;SDS011;56688;50.234;19.292;2023-04-24T08:45:55;3.20;;;2.70;;
69126;SDS011;56688;50.234;19.292;2023-04-24T08:48:23;3.70;;;2.70;;
69126;SDS011;56688;50.234;19.292;2023-04-24T08:50:57;5.90;;;2.80;;
69126;SDS011;56688;50.234;19.292;2023-04-24T08:53:26;6.50;;;3.20;;
69126;SDS011;56688;50.234;19.292;2023-04-24T08:55:54;5.20;;;2.80;;
69126;SDS011;56688;50.234;19.292;2023-04-24T08:58:22;5.90;;;2.60;;
69126;SDS011;56688;50.234;19.292;2023-04-24T09:00:54;3.90;;;2.60;;
69126;SDS011;56688;50.234;19.292;2023-04-24T09:03:22;4.60;;;2.70;;
69126;SDS011;56688;50.234;19.292;2023-04-24T09:05:49;6.60;;;2.90;;
69126;SDS011;56688;50.234;19.292;2023-04-24T09:08:18;3.80;;;3.20;;
69126;SDS011;56688;50.234;19.292;2023-04-24T09:10:46;4.80;;;3.20;;
69126;SDS011;56688;50.234;19.292;2023-04-24T09:13:16;4.80;;;2.90;;
69126;SDS011;56688;50.234;19.292;2023-04-24T09:15:45;5.10;;;3.20;;
69126;SDS011;56688;50.234;19.292;2023-04-24T09:18:12;6.00;;;3.10;;
69126;SDS011;56688;50.234;19.292;2023-04-24T09:23:27;4.40;;;3.00;;
69126;SDS011;56688;50.234;19.292;2023-04-24T09:25:55;5.40;;;3.10;;
69126;SDS011;56688;50.234;19.292;2023-04-24T09:28:30;4.00;;;3.30;;
69126;SDS011;56688;50.234;19.292;2023-04-24T09:31:02;6.60;;;3.20;;
69126;SDS011;56688;50.234;19.292;2023-04-24T09:33:33;4.00;;;3.10;;
69126;SDS011;56688;50.234;19.292;2023-04-24T09:36:00;9.20;;;3.00;;
69126;SDS011;56688;50.234;19.292;2023-04-24T09:38:31;6.20;;;2.90;;
69126;SDS011;56688;50.234;19.292;2023-04-24T09:41:00;6.10;;;3.10;;
69126;SDS011;56688;50.234;19.292;2023-04-24T09:43:30;6.40;;;3.10;;
69126;SDS011;56688;50.234;19.292;2023-04-24T09:45:58;3.10;;;2.80;;
69126;SDS011;56688;50.234;19.292;2023-04-24T09:48:29;4.80;;;2.90;;
69126;SDS011;56688;50.234;19.292;2023-04-24T09:50:57;5.60;;;4.00;;
69126;SDS011;56688;50.234;19.292;2023-04-24T09:53:25;4.10;;;3.00;;
69126;SDS011;56688;50.234;19.292;2023-04-24T09:55:53;5.20;;;2.70;;
69126;SDS011;56688;50.234;19.292;2023-04-24T09:58:27;5.90;;;3.10;;
69126;SDS011;56688;50.234;19.292;2023-04-24T10:01:11;4.80;;;2.90;;
69126;SDS011;56688;50.234;19.292;2023-04-24T10:03:38;8.00;;;3.20;;
69126;SDS011;56688;50.234;19.292;2023-04-24T10:06:08;5.00;;;3.10;;
69126;SDS011;56688;50.234;19.292;2023-04-24T10:08:39;5.10;;;2.90;;
69126;SDS011;56688;50.234;19.292;2023-04-24T10:11:06;4.20;;;2.70;;
69126;SDS011;56688;50.234;19.292;2023-04-24T10:13:34;3.00;;;2.70;;
69126;SDS011;56688;50.234;19.292;2023-04-24T10:16:02;5.70;;;2.70;;
69126;SDS011;56688;50.234;19.292;2023-04-24T10:18:30;4.60;;;3.00;;
69126;SDS011;56688;50.234;19.292;2023-04-24T10:20:59;5.40;;;3.00;;
69126;SDS011;56688;50.234;19.292;2023-04-24T10:23:27;4.00;;;2.70;;
69126;SDS011;56688;50.234;19.292;2023-04-24T10:25:55;4.00;;;3.10;;
69126;SDS011;56688;50.234;19.292;2023-04-24T10:28:22;3.20;;;2.80;;
69126;SDS011;56688;50.234;19.292;2023-04-24T10:30:50;6.70;;;2.90;;
69126;SDS011;56688;50.234;19.292;2023-04-24T10:33:21;6.30;;;3.00;;
69126;SDS011;56688;50.234;19.292;2023-04-24T10:35:49;4.30;;;2.80;;
69126;SDS011;56688;50.234;19.292;2023-04-24T10:38:21;3.80;;;3.00;;
69126;SDS011;56688;50.234;19.292;2023-04-24T10:40:51;4.60;;;3.00;;
69126;SDS011;56688;50.234;19.292;2023-04-24T10:43:23;4.50;;;2.90;;
69126;SDS011;56688;50.234;19.292;2023-04-24T10:48:33;4.80;;;3.50;;
69126;SDS011;56688;50.234;19.292;2023-04-24T10:51:00;4.00;;;3.10;;
69126;SDS011;56688;50.234;19.292;2023-04-24T10:53:29;4.90;;;3.00;;
69126;SDS011;56688;50.234;19.292;2023-04-24T10:58:36;4.60;;;2.80;;
69126;SDS011;56688;50.234;19.292;2023-04-24T11:01:24;4.80;;;3.10;;
69126;SDS011;56688;50.234;19.292;2023-04-24T11:03:54;5.00;;;3.40;;
69126;SDS011;56688;50.234;19.292;2023-04-24T11:06:32;5.20;;;3.10;;
69126;SDS011;56688;50.234;19.292;2023-04-24T11:09:02;6.80;;;3.40;;
69126;SDS011;56688;50.234;19.292;2023-04-24T11:11:33;4.60;;;3.80;;
69126;SDS011;56688;50.234;19.292;2023-04-24T11:14:02;5.40;;;3.30;;
69126;SDS011;56688;50.234;19.292;2023-04-24T11:19:23;8.40;;;3.40;;
69126;SDS011;56688;50.234;19.292;2023-04-24T11:21:59;4.90;;;3.20;;
69126;SDS011;56688;50.234;19.292;2023-04-24T11:24:31;5.90;;;3.20;;
69126;SDS011;56688;50.234;19.292;2023-04-24T11:32:15;7.30;;;4.00;;
69126;SDS011;56688;50.234;19.292;2023-04-24T11:34:46;9.80;;;3.90;;
69126;SDS011;56688;50.234;19.292;2023-04-24T11:37:14;8.30;;;4.00;;
69126;SDS011;56688;50.234;19.292;2023-04-24T11:39:42;5.30;;;3.60;;
69126;SDS011;56688;50.234;19.292;2023-04-24T11:42:09;4.90;;;3.40;;
69126;SDS011;56688;50.234;19.292;2023-04-24T11:44:37;5.10;;;3.40;;
69126;SDS011;56688;50.234;19.292;2023-04-24T11:47:05;9.30;;;3.60;;
69126;SDS011;56688;50.234;19.292;2023-04-24T11:49:33;7.60;;;3.70;;
69126;SDS011;56688;50.234;19.292;2023-04-24T11:52:03;5.50;;;3.60;;
69126;SDS011;56688;50.234;19.292;2023-04-24T11:54:31;7.00;;;3.90;;
69126;SDS011;56688;50.234;19.292;2023-04-24T11:56:59;6.60;;;4.00;;
69126;SDS011;56688;50.234;19.292;2023-04-24T11:59:26;6.00;;;3.80;;
69126;SDS011;56688;50.234;19.292;2023-04-24T12:01:53;7.20;;;3.90;;
69126;SDS011;56688;50.234;19.292;2023-04-24T12:04:20;7.50;;;4.30;;
69126;SDS011;56688;50.234;19.292;2023-04-24T12:12:18;5.80;;;3.90;;
69126;SDS011;56688;50.234;19.292;2023-04-24T12:14:47;6.30;;;4.10;;
69126;SDS011;56688;50.234;19.292;2023-04-24T12:17:16;5.80;;;3.90;;
69126;SDS011;56688;50.234;19.292;2023-04-24T12:19:47;5.50;;;3.90;;
69126;SDS011;56688;50.234;19.292;2023-04-24T12:22:14;11.80;;;3.70;;
69126;SDS011;56688;50.234;19.292;2023-04-24T12:27:29;7.30;;;3.80;;
69126;SDS011;56688;50.234;19.292;2023-04-24T12:29:57;8.00;;;3.10;;
69126;SDS011;56688;50.234;19.292;2023-04-24T12:32:25;4.20;;;2.90;;
69126;SDS011;56688;50.234;19.292;2023-04-24T12:34:54;6.80;;;3.20;;
69126;SDS011;56688;50.234;19.292;2023-04-24T12:37:24;4.10;;;2.90;;
69126;SDS011;56688;50.234;19.292;2023-04-24T12:39:59;3.90;;;3.10;;
69126;SDS011;56688;50.234;19.292;2023-04-24T12:42:27;5.00;;;3.30;;
69126;SDS011;56688;50.234;19.292;2023-04-24T12:44:57;5.90;;;3.40;;
69126;SDS011;56688;50.234;19.292;2023-04-24T12:47:27;4.70;;;3.50;;
69126;SDS011;56688;50.234;19.292;2023-04-24T12:49:54;6.80;;;3.90;;
69126;SDS011;56688;50.234;19.292;2023-04-24T12:52:22;5.70;;;3.70;;
69126;SDS011;56688;50.234;19.292;2023-04-24T12:54:52;11.20;;;3.50;;
69126;SDS011;56688;50.234;19.292;2023-04-24T12:57:22;5.30;;;3.30;;
69126;SDS011;56688;50.234;19.292;2023-04-24T12:59:50;4.70;;;3.40;;
69126;SDS011;56688;50.234;19.292;2023-04-24T13:02:17;4.30;;;3.40;;
69126;SDS011;56688;50.234;19.292;2023-04-24T13:04:45;6.60;;;3.50;;
69126;SDS011;56688;50.234;19.292;2023-04-24T13:07:14;4.40;;;3.50;;
69126;SDS011;56688;50.234;19.292;2023-04-24T13:09:41;3.90;;;3.20;;
69126;SDS011;56688;50.234;19.292;2023-04-24T13:12:09;3.50;;;2.80;;
69126;SDS011;56688;50.234;19.292;2023-04-24T13:14:38;4.80;;;2.80;;
69126;SDS011;56688;50.234;19.292;2023-04-24T13:17:05;4.10;;;2.80;;
69126;SDS011;56688;50.234;19.292;2023-04-24T13:19:36;3.70;;;2.30;;
69126;SDS011;56688;50.234;19.292;2023-04-24T13:22:04;4.30;;;3.10;;
69126;SDS011;56688;50.234;19.292;2023-04-24T13:24:32;3.50;;;2.90;;
69126;SDS011;56688;50.234;19.292;2023-04-24T13:27:00;4.20;;;3.00;;
69126;SDS011;56688;50.234;19.292;2023-04-24T13:29:27;5.00;;;3.00;;
69126;SDS011;56688;50.234;19.292;2023-04-24T13:31:55;4.10;;;3.10;;
69126;SDS011;56688;50.234;19.292;2023-04-24T13:34:23;6.80;;;2.80;;
69126;SDS011;56688;50.234;19.292;2023-04-24T13:36:50;6.40;;;3.20;;
69126;SDS011;56688;50.234;19.292;2023-04-24T13:39:20;6.50;;;3.00;;
69126;SDS011;56688;50.234;19.292;2023-04-24T13:41:47;4.10;;;3.00;;
69126;SDS011;56688;50.234;19.292;2023-04-24T13:44:15;6.10;;;3.40;;
69126;SDS011;56688;50.234;19.292;2023-04-24T13:46:43;4.10;;;2.90;;
69126;SDS011;56688;50.234;19.292;2023-04-24T13:49:12;4.80;;;3.50;;
69126;SDS011;56688;50.234;19.292;2023-04-24T13:51:40;6.20;;;3.70;;
69126;SDS011;56688;50.234;19.292;2023-04-24T13:54:08;6.90;;;3.80;;
69126;SDS011;56688;50.234;19.292;2023-04-24T13:56:35;7.50;;;4.00;;
69126;SDS011;56688;50.234;19.292;2023-04-24T13:59:02;4.60;;;3.50;;
69126;SDS011;56688;50.234;19.292;2023-04-24T14:01:29;5.00;;;3.90;;
69126;SDS011;56688;50.234;19.292;2023-04-24T14:03:55;5.90;;;3.80;;
69126;SDS011;56688;50.234;19.292;2023-04-24T14:06:23;7.10;;;4.10;;
69126;SDS011;56688;50.234;19.292;2023-04-24T14:08:50;5.30;;;3.40;;
69126;SDS011;56688;50.234;19.292;2023-04-24T14:11:18;4.70;;;3.40;;
69126;SDS011;56688;50.234;19.292;2023-04-24T14:13:45;5.10;;;3.60;;
69126;SDS011;56688;50.234;19.292;2023-04-24T14:16:13;5.90;;;4.00;;
69126;SDS011;56688;50.234;19.292;2023-04-24T14:18:41;7.40;;;3.00;;
69126;SDS011;56688;50.234;19.292;2023-04-24T14:21:07;5.80;;;2.40;;
69126;SDS011;56688;50.234;19.292;2023-04-24T14:23:34;2.90;;;2.50;;
69126;SDS011;56688;50.234;19.292;2023-04-24T14:26:01;3.80;;;3.00;;
69126;SDS011;56688;50.234;19.292;2023-04-24T14:28:28;6.20;;;3.30;;
69126;SDS011;56688;50.234;19.292;2023-04-24T14:30:55;5.00;;;2.90;;
69126;SDS011;56688;50.234;19.292;2023-04-24T14:33:22;4.60;;;2.70;;
69126;SDS011;56688;50.234;19.292;2023-04-24T14:35:49;2.90;;;2.20;;
69126;SDS011;56688;50.234;19.292;2023-04-24T14:38:16;3.10;;;2.70;;
69126;SDS011;56688;50.234;19.292;2023-04-24T14:40:43;2.40;;;2.20;;
69126;SDS011;56688;50.234;19.292;2023-04-24T14:43:30;4.30;;;2.70;;
69126;SDS011;56688;50.234;19.292;2023-04-24T14:45:57;4.70;;;3.00;;
69126;SDS011;56688;50.234;19.292;2023-04-24T14:48:24;2.80;;;1.90;;
69126;SDS011;56688;50.234;19.292;2023-04-24T14:50:51;5.00;;;2.70;;
69126;SDS011;56688;50.234;19.292;2023-04-24T14:53:18;3.30;;;2.70;;
69126;SDS011;56688;50.234;19.292;2023-04-24T14:55:45;4.40;;;2.30;;